Airfield :
LOGIN :

Register | Disclaimer

   EN    FR    IT 

 










Legend :    VFR   Marginal VFR   IFR   Intensive IFR   Very Intensive IFR
Visi :
Ceiling :
>= 8 km
>= 3000ft
5 to 8 km
1000 to 3000 ft
1500m to 5 km
500 to 1000 ft
800 to 1500m
200 to 500 ft
< 800m
< 200 ft
Symbols :   Thunderstorms  Fog  Heavy snow  Heavy precipitations  Wind > 20 kt
SIGMETs :     Misc.  Thunderstorms  Icing  Turbulence  Mountain Waves  Volcanic Ashes






- Airport Elevation : 1302 ft
- IATA code : GNB


LFLS - Grenoble / St. Geoirs

CURRENT METAR :
  • 101000Z AUTO 34008KT 9999 SCT017 04/01 Q1028 NOSIG

EXPIRED METARs :
  • 100930Z AUTO VRB03KT 9999 FEW017 04/01 Q1028 NOSIG
  • 100900Z AUTO 34008KT 310V010 9999 SCT013 03/01 Q1028 NOSIG
  • 100830Z AUTO 31004KT 270V350 9999 BKN014 03/01 Q1028 BECMG SCT012
  • 100800Z AUTO VRB03KT 9999 BKN015 03/00 Q1028 TEMPO BKN010
  • 100730Z AUTO 03005KT 360V080 9999 FEW014 02/M00 Q1027 TEMPO BKN010

TAF TAF LFLS
Valid from the 10 at 09:00 until the 11 at 09:00 UTC


100800Z 1009/1109 36010KT CAVOK
BECMG 1010/1012 SCT012
BECMG 1015/1017 CAVOK
BECMG 1022/1024 09006KT
BECMG 1107/1109 -RA BKN060
ATIS : +33 4 76 65 55 89



MET'MAP, your aeronautical weather chart ! - Copyright ORBIFLY December 2007 - Disclaimer

ORBIFLY MET'MAP TEAM :

Programming & Development : Alexandra Zaïnal
Concept & original design : Baudouin d'Aumeries
Assistance for programming : Marc-Olivier Méhu
Technical & hardware support : Manuel Goepfert

Contact : metmap@orbifly.com




SOURCES & CREDITS :

   NOAA